createdAt,value
2018-09-14T00:00:02.517Z,89.46
2018-09-14T00:01:12.645Z,89.55
2018-09-14T00:02:22.501Z,88.79
2018-09-14T00:03:32.642Z,88.7
2018-09-14T00:04:42.275Z,88.79
2018-09-14T00:05:52.420Z,89.46
2018-09-14T00:07:02.266Z,88.7
2018-09-14T00:08:11.846Z,88.79
2018-09-14T00:09:21.419Z,89.07
2018-09-14T00:10:31.548Z,89.07
2018-09-14T00:11:41.399Z,89.46
2018-09-14T00:12:51.544Z,89.51
2018-09-14T00:14:01.402Z,89.46
2018-09-14T00:15:10.984Z,89.36
2018-09-14T00:16:20.614Z,89.65
2018-09-14T00:17:30.472Z,89.07
2018-09-14T00:18:40.051Z,88.89
2018-09-14T00:19:50.182Z,88.6
2018-09-14T00:21:00.311Z,88.41
2018-09-14T00:22:09.901Z,89.65
2018-09-14T00:23:19.204Z,89.36
2018-09-14T00:24:29.058Z,89.17
2018-09-14T00:25:38.915Z,89.65
2018-09-14T00:26:49.047Z,89.7
2018-09-14T00:27:58.674Z,89.79
2018-09-14T00:29:08.805Z,90.03
2018-09-14T00:30:18.662Z,89.98
2018-09-14T00:31:28.790Z,90.17
2018-09-14T00:32:38.648Z,90.17
2018-09-14T00:33:48.550Z,90.46
2018-09-14T00:34:58.669Z,91.03
2018-09-14T00:36:08.520Z,90.36
2018-09-14T00:37:18.646Z,90.56
2018-09-14T00:38:28.777Z,90.94
2018-09-14T00:39:38.957Z,91.79
2018-09-14T00:40:49.094Z,91.51
2018-09-14T00:41:58.953Z,91.51
2018-09-14T00:43:08.807Z,91.89
2018-09-14T00:44:18.939Z,91.6
2018-09-14T00:45:29.123Z,91.79
2018-09-14T00:46:38.977Z,91.7
2018-09-14T00:47:49.105Z,92.08
2018-09-14T00:48:59.231Z,91.7
2018-09-14T00:50:08.824Z,91.79
2018-09-14T00:51:18.728Z,91.89
2018-09-14T00:52:28.310Z,91.89
2018-09-14T00:53:38.453Z,92.08
2018-09-14T00:54:47.759Z,92.18
2018-09-14T00:55:57.882Z,92.08
2018-09-14T00:57:07.789Z,92.36
2018-09-14T00:58:17.646Z,91.31
2018-09-14T00:59:27.497Z,91.79
2018-09-14T01:00:37.624Z,91.51
2018-09-14T01:01:47.474Z,91.41
2018-09-14T01:02:57.382Z,91.7
2018-09-14T01:04:07.241Z,92.27
2018-09-14T01:05:17.092Z,91.89
2018-09-14T01:06:26.941Z,92.08
2018-09-14T01:07:36.855Z,91.79
2018-09-14T01:08:47.034Z,91.7
2018-09-14T01:09:56.882Z,92.18
2018-09-14T01:11:06.796Z,91.99
2018-09-14T01:12:16.916Z,92.55
2018-09-14T01:13:26.769Z,92.36
2018-09-14T01:14:36.956Z,92.36
2018-09-14T01:15:46.815Z,92.36
2018-09-14T01:16:56.945Z,92.55
2018-09-14T01:18:06.834Z,93.03
2018-09-14T01:19:16.968Z,92.84
2018-09-14T01:20:27.161Z,92.36
2018-09-14T01:21:37.290Z,92.18
2018-09-14T01:22:47.420Z,91.7
2018-09-14T01:23:57.562Z,91.51
2018-09-14T01:25:07.693Z,92.18
2018-09-14T01:26:17.594Z,92.08
2018-09-14T01:27:27.447Z,91.99
2018-09-14T01:28:37.568Z,91.99
2018-09-14T01:29:47.697Z,91.99
2018-09-14T01:30:57.551Z,91.94
2018-09-14T01:32:07.458Z,92.22
2018-09-14T01:33:17.035Z,92.7
2018-09-14T01:34:27.167Z,92.08
2018-09-14T01:35:37.290Z,92.36
2018-09-14T01:36:47.415Z,92.08
2018-09-14T01:37:57.316Z,92.55
2018-09-14T01:39:07.448Z,92.08
2018-09-14T01:40:17.303Z,92.08
2018-09-14T01:41:27.431Z,91.7
2018-09-14T01:42:37.565Z,91.6
2018-09-14T01:43:47.797Z,92.46
2018-09-14T01:44:57.658Z,91.51
2018-09-14T01:46:07.522Z,92.08
2018-09-14T01:47:17.396Z,91.89
2018-09-14T01:48:27.601Z,92.27
2018-09-14T01:49:37.582Z,91.79
2018-09-14T01:50:47.790Z,91.7
2018-09-14T01:51:58.005Z,91.51
2018-09-14T01:53:07.933Z,91.6
2018-09-14T01:54:18.146Z,91.79
2018-09-14T01:55:28.656Z,91.6
2018-09-14T01:56:38.863Z,90.94
2018-09-14T01:57:48.795Z,90.75
2018-09-14T01:58:58.448Z,91.03
2018-09-14T02:00:08.660Z,91.03
2018-09-14T02:01:18.358Z,90.94
2018-09-14T02:02:28.586Z,90.84
2018-09-14T02:03:38.796Z,90.75
2018-09-14T02:04:49.010Z,90.56
2018-09-14T02:05:59.217Z,90.94
2018-09-14T02:07:09.428Z,90.75
2018-09-14T02:08:19.079Z,90.84
2018-09-14T02:09:28.168Z,90.84
2018-09-14T02:10:38.375Z,90.84
2018-09-14T02:11:47.749Z,91.31
2018-09-14T02:12:58.009Z,90.75
2018-09-14T02:14:08.217Z,91.22
2018-09-14T02:15:18.425Z,90.61
2018-09-14T02:16:28.632Z,90.7
2018-09-14T02:17:38.563Z,90.75
2018-09-14T02:18:48.868Z,90.99
2018-09-14T02:19:59.096Z,91.41
2018-09-14T02:21:08.745Z,91.22
2018-09-14T02:22:18.959Z,90.7
2018-09-14T02:23:29.165Z,90.65
2018-09-14T02:24:39.677Z,90.94
2018-09-14T02:25:49.614Z,90.75
2018-09-14T02:26:59.851Z,90.8
2018-09-14T02:28:09.502Z,91.37
2018-09-14T02:29:19.714Z,91.75
2018-09-14T02:30:29.367Z,91.7
2018-09-14T02:31:39.615Z,91.84
2018-09-14T02:32:49.561Z,91.65
2018-09-14T02:33:59.836Z,91.75
2018-09-14T02:35:09.832Z,92.22
2018-09-14T02:36:20.098Z,91.65
2018-09-14T02:37:29.748Z,91.94
2018-09-14T02:38:39.974Z,92.13
2018-09-14T02:39:49.919Z,92.41
2018-09-14T02:40:59.568Z,91.84
2018-09-14T02:42:10.085Z,92.51
2018-09-14T02:43:20.170Z,92.41
2018-09-14T02:44:29.820Z,92.51
2018-09-14T02:45:40.029Z,92.79
2018-09-14T02:46:50.249Z,92.41
2018-09-14T02:48:02.468Z,92.89
2018-09-14T02:49:12.394Z,93.46
2018-09-14T02:50:22.324Z,93.46
2018-09-14T02:51:32.535Z,93.37
2018-09-14T02:52:42.484Z,93.46
2018-09-14T02:53:52.701Z,93.74
2018-09-14T02:55:02.632Z,93.37
2018-09-14T02:56:12.006Z,93.84
2018-09-14T02:57:22.223Z,93.84
2018-09-14T02:58:31.875Z,93.84
2018-09-14T02:59:44.102Z,93.65
2018-09-14T03:00:54.314Z,93.65
2018-09-14T03:02:04.251Z,93.46
2018-09-14T03:03:14.181Z,94.03
2018-09-14T03:04:24.111Z,94.22
2018-09-14T03:05:34.328Z,94.32
2018-09-14T03:06:44.564Z,94.7
2018-09-14T03:07:54.785Z,94.51
2018-09-14T03:09:04.437Z,94.7
2018-09-14T03:10:14.646Z,94.98
2018-09-14T03:11:24.349Z,95.22
2018-09-14T03:12:34.623Z,95.22
2018-09-14T03:13:44.841Z,95.36
2018-09-14T03:14:54.770Z,95.17
2018-09-14T03:16:04.153Z,95.32
2018-09-14T03:17:14.365Z,95.32
2018-09-14T03:18:24.297Z,95.6
2018-09-14T03:19:34.529Z,95.41
2018-09-14T03:20:44.189Z,95.79
2018-09-14T03:21:54.402Z,96.17
2018-09-14T03:23:04.385Z,95.98
2018-09-14T03:24:14.598Z,95.7
2018-09-14T03:25:24.818Z,95.98
2018-09-14T03:26:34.758Z,95.41
2018-09-14T03:27:44.974Z,95.79
2018-09-14T03:28:55.234Z,95.98
2018-09-14T03:30:05.181Z,96.08
2018-09-14T03:31:15.437Z,95.98
2018-09-14T03:32:25.728Z,96.36
2018-09-14T03:33:35.667Z,96.74
2018-09-14T03:34:45.944Z,96.46
2018-09-14T03:35:55.873Z,96.84
2018-09-14T03:37:06.078Z,97.03
2018-09-14T03:38:16.016Z,97.03
2018-09-14T03:39:26.440Z,96.74
2018-09-14T03:40:36.239Z,96.74
2018-09-14T03:41:46.173Z,96.55
2018-09-14T03:42:55.544Z,96.84
2018-09-14T03:44:05.198Z,97.03
2018-09-14T03:45:15.132Z,97.31
2018-09-14T03:46:24.832Z,97.03
2018-09-14T03:47:34.764Z,96.74
2018-09-14T03:48:44.694Z,97.03
2018-09-14T03:49:54.623Z,97.03
2018-09-14T03:51:04.558Z,97.03
2018-09-14T03:52:14.823Z,97.31
2018-09-14T03:53:25.038Z,97.31
2018-09-14T03:54:34.969Z,96.94
2018-09-14T03:55:44.619Z,97.41
2018-09-14T03:56:54.836Z,97.5
2018-09-14T03:58:04.635Z,97.31
2018-09-14T03:59:14.852Z,97.13
2018-09-14T04:00:24.781Z,97.36
2018-09-14T04:01:34.152Z,97.36
2018-09-14T04:02:44.076Z,97.55
2018-09-14T04:03:54.059Z,96.74
2018-09-14T04:05:04.287Z,96.74
2018-09-14T04:06:14.233Z,96.84
2018-09-14T04:07:24.552Z,96.65
2018-09-14T04:08:34.212Z,96.74
2018-09-14T04:09:43.917Z,96.74
2018-09-14T04:10:53.572Z,96.79
2018-09-14T04:12:03.793Z,96.69
2018-09-14T04:13:13.725Z,96.74
2018-09-14T04:14:23.656Z,96.26
2018-09-14T04:15:33.912Z,96.17
2018-09-14T04:16:44.123Z,96.26
2018-09-14T04:17:53.769Z,95.79
2018-09-14T04:19:03.420Z,96.08
2018-09-14T04:20:13.091Z,95.51
2018-09-14T04:21:23.192Z,95.98
2018-09-14T04:22:33.128Z,96.17
2018-09-14T04:23:43.318Z,95.6
2018-09-14T04:24:53.390Z,95.22
2018-09-14T04:26:03.382Z,94.74
2018-09-14T04:27:13.638Z,94.74
2018-09-14T04:28:23.846Z,94.74
2018-09-14T04:29:33.796Z,94.18
2018-09-14T04:30:44.010Z,94.46
2018-09-14T04:31:53.946Z,95.03
2018-09-14T04:33:04.216Z,94.46
2018-09-14T04:34:14.153Z,95.03
2018-09-14T04:35:23.821Z,94.65
2018-09-14T04:36:33.751Z,94.65
2018-09-14T04:37:43.966Z,94.74
2018-09-14T04:38:54.291Z,94.56
2018-09-14T04:40:04.225Z,94.65
2018-09-14T04:41:13.596Z,94.65
2018-09-14T04:42:23.269Z,94.37
2018-09-14T04:43:33.484Z,94.46
2018-09-14T04:44:43.184Z,94.56
2018-09-14T04:45:53.400Z,93.79
2018-09-14T04:47:03.056Z,93.98
2018-09-14T04:48:13.312Z,94.27
2018-09-14T04:49:23.713Z,93.89
2018-09-14T04:50:33.982Z,93.6
2018-09-14T04:51:43.926Z,93.7
2018-09-14T04:52:53.862Z,94.08
2018-09-14T04:54:04.115Z,93.79
2018-09-14T04:55:14.062Z,94.46
2018-09-14T04:56:24.057Z,94.65
2018-09-14T04:57:34.533Z,93.89
2018-09-14T04:58:44.299Z,93.41
2018-09-14T04:59:54.510Z,93.46
2018-09-14T05:01:04.444Z,93.41
2018-09-14T05:02:14.440Z,93.51
2018-09-14T05:03:24.770Z,93.51
2018-09-14T05:04:34.554Z,93.37
2018-09-14T05:05:44.768Z,93.27
2018-09-14T05:06:54.979Z,93.27
2018-09-14T05:08:07.241Z,93.27
2018-09-14T05:09:16.894Z,93.55
2018-09-14T05:10:27.105Z,93.46
2018-09-14T05:11:37.039Z,93.55
2018-09-14T05:12:46.972Z,92.79
2018-09-14T05:13:57.010Z,93.55
2018-09-14T05:15:07.445Z,92.79
2018-09-14T05:16:17.657Z,92.79
2018-09-14T05:17:27.865Z,93.08
2018-09-14T05:18:37.799Z,92.32
2018-09-14T05:19:47.827Z,92.79
2018-09-14T05:20:58.036Z,92.99
2018-09-14T05:22:08.244Z,92.51
2018-09-14T05:23:18.464Z,91.65
2018-09-14T05:24:28.517Z,91.65
2018-09-14T05:25:38.430Z,91.56
2018-09-14T05:26:48.645Z,91.65
2018-09-14T05:27:58.859Z,91.27
2018-09-14T05:29:08.796Z,91.17
2018-09-14T05:30:19.012Z,91.65
2018-09-14T05:31:29.270Z,90.84
2018-09-14T05:32:39.208Z,90.7
2018-09-14T05:33:49.141Z,89.98
2018-09-14T05:34:59.354Z,91.17
2018-09-14T05:36:09.281Z,90.22
2018-09-14T05:37:18.979Z,89.98
2018-09-14T05:38:29.358Z,89.7
2018-09-14T05:39:39.296Z,89.51
2018-09-14T05:40:49.508Z,89.7
2018-09-14T05:41:59.438Z,89.22
2018-09-14T05:43:09.419Z,89.61
2018-09-14T05:44:19.352Z,88.84
2018-09-14T05:45:29.278Z,89.32
2018-09-14T05:46:39.318Z,88.84
2018-09-14T05:47:49.307Z,88.18
2018-09-14T05:48:58.731Z,88.65
2018-09-14T05:50:08.945Z,87.98
2018-09-14T05:51:18.316Z,88.65
2018-09-14T05:52:28.251Z,88.18
2018-09-14T05:53:38.185Z,88.18
2018-09-14T05:54:48.456Z,88.84
2018-09-14T05:55:58.110Z,88.65
2018-09-14T05:57:07.760Z,88.56
2018-09-14T05:58:17.695Z,88.56
2018-09-14T05:59:27.342Z,88.56
2018-09-14T06:00:37.615Z,89.41
2018-09-14T06:01:47.561Z,88.37
2018-09-14T06:02:57.490Z,88.65
2018-09-14T06:04:07.433Z,88.46
2018-09-14T06:05:17.647Z,87.6
2018-09-14T06:06:27.637Z,87.32
2018-09-14T06:07:38.168Z,87.6
2018-09-14T06:08:48.383Z,86.84
2018-09-14T06:09:58.600Z,86.84
2018-09-14T06:11:08.535Z,87.03
2018-09-14T06:12:18.513Z,86.69
2018-09-14T06:13:28.720Z,85.99
2018-09-14T06:14:38.927Z,86.65
2018-09-14T06:15:48.857Z,86.65
2018-09-14T06:16:58.883Z,85.99
2018-09-14T06:18:09.555Z,86.98
2018-09-14T06:19:19.488Z,86.03
2018-09-14T06:20:29.136Z,87.36
2018-09-14T06:21:39.346Z,87.17
2018-09-14T06:22:49.695Z,86.46
2018-09-14T06:23:59.832Z,86.88
2018-09-14T06:25:09.765Z,86.51
2018-09-14T06:26:19.993Z,86.22
2018-09-14T06:27:29.928Z,86.12
2018-09-14T06:28:39.296Z,86.32
2018-09-14T06:29:49.271Z,86.12
2018-09-14T06:30:59.200Z,86.88
2018-09-14T06:32:09.422Z,87.36
2018-09-14T06:33:19.634Z,85.46
2018-09-14T06:34:29.863Z,85.64
2018-09-14T06:35:39.564Z,86.12
2018-09-14T06:36:49.499Z,86.03
2018-09-14T06:37:59.151Z,85.84
2018-09-14T06:39:09.443Z,85.74
2018-09-14T06:40:19.666Z,86.03
2018-09-14T06:41:29.087Z,86.51
2018-09-14T06:42:38.744Z,85.46
2018-09-14T06:43:48.679Z,85.64
2018-09-14T06:44:58.696Z,85.84
2018-09-14T06:46:08.984Z,84.98
2018-09-14T06:47:19.248Z,85.17
2018-09-14T06:48:28.619Z,85.36
2018-09-14T06:49:38.899Z,84.98
2018-09-14T06:50:49.089Z,85.27
2018-09-14T06:51:59.580Z,85.17
2018-09-14T06:53:09.472Z,85.46
2018-09-14T06:54:19.868Z,85.84
2018-09-14T06:55:29.817Z,86.41
2018-09-14T06:56:39.748Z,85.64
2018-09-14T06:57:49.395Z,84.88
2018-09-14T06:58:58.811Z,84.31
2018-09-14T07:00:08.891Z,85.08
2018-09-14T07:01:19.702Z,85.46
2018-09-14T07:02:29.361Z,85.17
2018-09-14T07:03:39.568Z,84.79
2018-09-14T07:04:49.552Z,85.36
2018-09-14T07:05:59.763Z,84.41
2018-09-14T07:07:09.678Z,84.41
2018-09-14T07:08:19.808Z,84.6
2018-09-14T07:09:29.938Z,83.74
2018-09-14T07:10:39.892Z,83.65
2018-09-14T07:11:49.466Z,83.55
2018-09-14T07:12:59.321Z,82.98
2018-09-14T07:14:09.622Z,82.79
2018-09-14T07:15:19.483Z,82.98
2018-09-14T07:16:29.657Z,82.5
2018-09-14T07:17:39.785Z,83.17
2018-09-14T07:18:49.921Z,82.79
2018-09-14T07:20:00.044Z,82.89
2018-09-14T07:21:09.342Z,82.79
2018-09-14T07:22:19.304Z,82.35
2018-09-14T07:23:29.924Z,82.45
2018-09-14T07:24:40.428Z,82.92
2018-09-14T07:25:51.151Z,82.83
2018-09-14T07:27:01.343Z,82.26
2018-09-14T07:28:11.037Z,82.45
2018-09-14T07:29:21.021Z,82.45
2018-09-14T07:30:30.636Z,80.92
2018-09-14T07:31:40.484Z,80.64
2018-09-14T07:32:50.842Z,79.78
2018-09-14T07:34:01.086Z,79.68
2018-09-14T07:35:10.392Z,80.07
2018-09-14T07:36:20.279Z,79.49
2018-09-14T07:37:29.945Z,79.21
2018-09-14T07:38:40.068Z,78.64
2018-09-14T07:39:49.695Z,79.4
2018-09-14T07:40:59.823Z,79.3
2018-09-14T07:42:09.676Z,79.4
2018-09-14T07:43:19.253Z,79.11
2018-09-14T07:44:29.115Z,78.83
2018-09-14T07:45:39.310Z,78.83
2018-09-14T07:46:49.190Z,79.78
2018-09-14T07:47:58.768Z,79.4
2018-09-14T07:49:08.678Z,78.16
2018-09-14T07:50:18.805Z,78.92
2018-09-14T07:51:28.936Z,79.59
2018-09-14T07:52:38.512Z,79.02
2018-09-14T07:53:48.090Z,77.91
2018-09-14T07:54:57.939Z,78.77
2018-09-14T07:56:07.789Z,79.35
2018-09-14T07:57:17.977Z,78.3
2018-09-14T07:58:27.553Z,78.2
2018-09-14T07:59:37.712Z,78.2
2018-09-14T08:00:47.841Z,77.15
2018-09-14T08:01:57.964Z,77.15
2018-09-14T08:03:07.587Z,77.82
2018-09-14T08:04:17.724Z,77.62
2018-09-14T08:05:27.579Z,77.91
2018-09-14T08:06:37.435Z,77.62
2018-09-14T08:07:47.572Z,76.48
2018-09-14T08:08:57.704Z,76.2
2018-09-14T08:10:07.282Z,76.57
2018-09-14T08:11:17.410Z,76.29
2018-09-14T08:12:27.269Z,76.1
2018-09-14T08:13:37.536Z,76.1
2018-09-14T08:14:47.388Z,76.48
2018-09-14T08:15:57.254Z,76.01
2018-09-14T08:17:06.843Z,76.14
2018-09-14T08:18:16.694Z,76.23
2018-09-14T08:19:26.827Z,76.33
2018-09-14T08:20:36.405Z,76.42
2018-09-14T08:21:46.608Z,75.57
2018-09-14T08:22:57.445Z,74.71
2018-09-14T08:24:07.303Z,75.18
2018-09-14T08:25:17.433Z,74.71
2018-09-14T08:26:27.554Z,74.52
2018-09-14T08:27:37.406Z,74.32
2018-09-14T08:28:46.987Z,75.18
2018-09-14T08:29:57.113Z,75.66
2018-09-14T08:31:06.965Z,75.95
2018-09-14T08:32:17.160Z,75.66
2018-09-14T08:33:27.133Z,75.37
2018-09-14T08:34:36.715Z,74.04
2018-09-14T08:35:46.572Z,73.37
2018-09-14T08:36:56.712Z,72.8
2018-09-14T08:38:06.567Z,73.94
2018-09-14T08:39:16.699Z,74.13
2018-09-14T08:40:26.549Z,72.51
2018-09-14T08:41:36.725Z,72.71
2018-09-14T08:42:46.862Z,72.8
2018-09-14T08:43:56.441Z,74.08
2018-09-14T08:45:06.297Z,72.36
2018-09-14T08:46:16.153Z,71.12
2018-09-14T08:47:25.464Z,71.41
2018-09-14T08:48:35.335Z,72.07
2018-09-14T08:49:45.188Z,73.5
2018-09-14T08:50:54.769Z,71.12
2018-09-14T08:52:04.619Z,71.21
2018-09-14T08:53:14.199Z,71.5
2018-09-14T08:54:24.385Z,72.07
2018-09-14T08:55:34.563Z,71.5
2018-09-14T08:56:44.694Z,70.45
2018-09-14T08:57:54.552Z,70.73
2018-09-14T08:59:04.632Z,70.16
2018-09-14T09:00:14.526Z,69.68
2018-09-14T09:01:24.670Z,69.78
2018-09-14T09:02:34.523Z,71.02
2018-09-14T09:03:44.727Z,70.83
2018-09-14T09:04:54.698Z,70.92
2018-09-14T09:06:04.567Z,69.78
2018-09-14T09:07:13.915Z,71.02
2018-09-14T09:08:24.554Z,70.73
2018-09-14T09:09:34.688Z,70.92
2018-09-14T09:10:44.544Z,70.73
2018-09-14T09:11:54.668Z,71.12
2018-09-14T09:13:04.518Z,70.54
2018-09-14T09:14:14.382Z,70.45
2018-09-14T09:15:24.505Z,70.36
2018-09-14T09:16:34.634Z,69.59
2018-09-14T09:17:44.625Z,69.87
2018-09-14T09:18:54.816Z,67.97
2018-09-14T09:20:04.961Z,68.26
2018-09-14T09:21:15.137Z,68.26
2018-09-14T09:22:25.433Z,68.54
2018-09-14T09:23:35.709Z,68.35
2018-09-14T09:24:45.613Z,69.21
2018-09-14T09:25:55.461Z,68.48
2018-09-14T09:27:05.039Z,68.35
2018-09-14T09:28:14.898Z,69.05
2018-09-14T09:29:25.090Z,68.19
2018-09-14T09:30:34.878Z,69.34
2018-09-14T09:31:44.456Z,68.1
2018-09-14T09:32:54.591Z,67.62
2018-09-14T09:34:03.898Z,68.1
2018-09-14T09:35:14.037Z,68.96
2018-09-14T09:36:24.167Z,68.67
2018-09-14T09:37:34.296Z,67.24
2018-09-14T09:38:44.424Z,67.52
2018-09-14T09:39:54.557Z,67.33
2018-09-14T09:41:04.420Z,66
2018-09-14T09:42:14.219Z,66.56
2018-09-14T09:43:24.754Z,66.85
2018-09-14T09:44:35.765Z,68
2018-09-14T09:45:45.625Z,68.38
2018-09-14T09:46:55.773Z,66.85
2018-09-14T09:48:05.904Z,67.33
2018-09-14T09:49:15.759Z,67.36
2018-09-14T09:50:25.341Z,67.36
2018-09-14T09:51:35.191Z,66.89
2018-09-14T09:52:45.063Z,65.17
2018-09-14T09:53:54.921Z,64.88
2018-09-14T09:55:05.073Z,64.5
2018-09-14T09:56:15.207Z,65.26
2018-09-14T09:57:25.079Z,65.55
2018-09-14T09:58:35.207Z,65.2
2018-09-14T09:59:44.790Z,64.98
2018-09-14T10:00:54.914Z,65.11
2018-09-14T10:02:04.239Z,66.41
2018-09-14T10:03:14.116Z,65.39
2018-09-14T10:04:24.242Z,64.12
2018-09-14T10:05:34.150Z,64.5
2018-09-14T10:06:44.283Z,65.36
2018-09-14T10:07:54.417Z,65.17
2018-09-14T10:09:04.545Z,65.2
2018-09-14T10:10:14.680Z,63.83
2018-09-14T10:11:24.807Z,63.83
2018-09-14T10:12:34.671Z,64.31
2018-09-14T10:13:44.532Z,64.91
2018-09-14T10:14:54.742Z,64.78
2018-09-14T10:16:04.830Z,64.31
2018-09-14T10:17:14.963Z,64.05
2018-09-14T10:18:25.098Z,65.2
2018-09-14T10:19:35.227Z,64.53
2018-09-14T10:20:45.182Z,64.43
2018-09-14T10:21:55.547Z,64.82
2018-09-14T10:23:05.682Z,64.25
2018-09-14T10:24:15.809Z,63.76
2018-09-14T10:25:25.392Z,64.34
2018-09-14T10:26:35.545Z,64.05
2018-09-14T10:27:45.497Z,62.81
2018-09-14T10:28:54.999Z,62.71
2018-09-14T10:30:05.533Z,63.19
2018-09-14T10:31:15.396Z,62.78
2018-09-14T10:32:24.977Z,63.67
2018-09-14T10:33:35.108Z,64.5
2018-09-14T10:34:45.243Z,63.29
2018-09-14T10:35:55.373Z,63.76
2018-09-14T10:37:05.147Z,63.19
2018-09-14T10:38:15.216Z,63.29
2018-09-14T10:39:25.071Z,63.76
2018-09-14T10:40:35.104Z,64.34
2018-09-14T10:41:45.442Z,64.37
2018-09-14T10:42:55.809Z,63.23
2018-09-14T10:44:05.853Z,62.84
2018-09-14T10:45:16.119Z,61.63
2018-09-14T10:46:26.666Z,60.96
2018-09-14T10:47:36.242Z,60.83
2018-09-14T10:48:46.169Z,62.46
2018-09-14T10:49:56.694Z,62.3
2018-09-14T10:51:06.804Z,62.01
2018-09-14T10:52:16.709Z,61.44
2018-09-14T10:53:27.015Z,60.1
2018-09-14T10:54:37.174Z,60.19
2018-09-14T10:55:47.220Z,60.86
2018-09-14T10:56:57.353Z,60.86
2018-09-14T10:58:07.210Z,60.99
2018-09-14T10:59:17.066Z,60.61
2018-09-14T11:00:27.201Z,58.59
2018-09-14T11:01:36.777Z,58.31
2018-09-14T11:02:46.907Z,59.36
2018-09-14T11:03:56.762Z,59.55
2018-09-14T11:05:06.621Z,60.64
2018-09-14T11:06:16.209Z,58.72
2018-09-14T11:07:26.065Z,57.7
2018-09-14T11:08:36.196Z,57.53
2018-09-14T11:09:45.832Z,58.01
2018-09-14T11:10:56.067Z,54.68
2018-09-14T11:12:05.924Z,53.91
2018-09-14T11:13:15.791Z,54.46
2018-09-14T11:14:25.377Z,54.68
2018-09-14T11:15:34.966Z,55.64
2018-09-14T11:16:45.110Z,52.95
2018-09-14T11:17:55.250Z,54.58
2018-09-14T11:19:05.529Z,55.57
2018-09-14T11:20:15.829Z,53.49
2018-09-14T11:21:25.979Z,52.05
2018-09-14T11:22:35.845Z,53.75
2018-09-14T11:23:45.157Z,52.69
2018-09-14T11:24:55.460Z,54.61
2018-09-14T11:26:06.104Z,51.76
2018-09-14T11:27:16.265Z,52.89
2018-09-14T11:28:26.396Z,52.14
2018-09-14T11:29:36.533Z,53.2
2018-09-14T11:30:46.681Z,52.91
2018-09-14T11:31:56.267Z,52.53
2018-09-14T11:33:06.125Z,50.9
2018-09-14T11:34:16.289Z,50.03
2018-09-14T11:35:26.482Z,50.8
2018-09-14T11:36:36.628Z,51.45
2018-09-14T11:37:46.272Z,52.5
2018-09-14T11:38:57.051Z,52.05
2018-09-14T11:40:06.909Z,49.74
2018-09-14T11:41:16.496Z,52.17
2018-09-14T11:42:26.629Z,49.38
2018-09-14T11:43:36.492Z,49.96
2018-09-14T11:44:46.072Z,49.51
2018-09-14T11:45:56.044Z,48.83
2018-09-14T11:47:06.120Z,48.25
2018-09-14T11:48:16.267Z,49.87
2018-09-14T11:49:26.129Z,49.22
2018-09-14T11:50:36.045Z,48.04
2018-09-14T11:51:46.186Z,47.27
2018-09-14T11:52:56.334Z,47.08
2018-09-14T11:54:06.339Z,48.07
2018-09-14T11:55:17.101Z,46.72
2018-09-14T11:56:26.680Z,47.3
2018-09-14T11:57:36.819Z,48.45
2018-09-14T11:58:46.683Z,46.26
2018-09-14T11:59:56.005Z,46.93
2018-09-14T12:01:06.151Z,49.24
2018-09-14T12:02:16.031Z,46.57
2018-09-14T12:03:25.636Z,45.44
2018-09-14T12:04:35.772Z,47.56
2018-09-14T12:05:45.920Z,43.8
2018-09-14T12:06:56.054Z,45.9
2018-09-14T12:08:06.188Z,45.13
2018-09-14T12:09:16.329Z,46.33
2018-09-14T12:10:26.463Z,47.94
2018-09-14T12:11:36.595Z,49.38
2018-09-14T12:12:46.182Z,49.48
2018-09-14T12:13:56.310Z,49.19
2018-09-14T12:15:06.005Z,49.67
2018-09-14T12:16:16.154Z,48.13
2018-09-14T12:17:26.294Z,48.13
2018-09-14T12:18:35.878Z,48.33
2018-09-14T12:19:46.064Z,49.19
2018-09-14T12:20:55.937Z,49.93
2018-09-14T12:22:05.899Z,48.11
2018-09-14T12:23:15.957Z,49.46
2018-09-14T12:24:25.270Z,49.36
2018-09-14T12:25:35.133Z,48.88
2018-09-14T12:26:45.276Z,48.02
2018-09-14T12:27:55.414Z,48.02
2018-09-14T12:29:05.007Z,48.76
2018-09-14T12:30:14.594Z,49.05
2018-09-14T12:31:24.508Z,49.33
2018-09-14T12:32:34.373Z,49.91
2018-09-14T12:33:44.512Z,50.78
2018-09-14T12:34:54.370Z,50.01
2018-09-14T12:36:03.682Z,50.39
2018-09-14T12:37:13.971Z,49.33
2018-09-14T12:38:24.112Z,50.1
2018-09-14T12:39:34.241Z,49.26
2018-09-14T12:40:44.380Z,49.52
2018-09-14T12:41:54.514Z,49.43
2018-09-14T12:43:03.869Z,49.62
2018-09-14T12:44:14.004Z,49.82
2018-09-14T12:45:23.310Z,49.15
2018-09-14T12:46:33.463Z,49.52
2018-09-14T12:47:43.596Z,49.15
2018-09-14T12:48:53.337Z,51.06
2018-09-14T12:50:03.489Z,50.9
2018-09-14T12:51:13.350Z,51.45
2018-09-14T12:52:23.483Z,51.06
2018-09-14T12:53:32.794Z,50.96
2018-09-14T12:54:42.709Z,51.06
2018-09-14T12:55:52.365Z,51.25
2018-09-14T12:57:02.507Z,51.35
2018-09-14T12:58:12.357Z,52.89
2018-09-14T12:59:22.493Z,53.24
2018-09-14T13:00:32.126Z,53.15
2018-09-14T13:01:42.258Z,53.82
2018-09-14T13:02:52.392Z,53.53
2018-09-14T13:04:01.986Z,54.49
2018-09-14T13:05:11.974Z,54.68
2018-09-14T13:06:22.159Z,54.46
2018-09-14T13:07:31.745Z,54.46
2018-09-14T13:08:41.608Z,55.33
2018-09-14T13:09:51.468Z,54.34
2018-09-14T13:11:01.607Z,56.45
2018-09-14T13:12:11.843Z,55.21
2018-09-14T13:13:21.983Z,55.87
2018-09-14T13:14:31.891Z,55.49
2018-09-14T13:15:41.656Z,54.44
2018-09-14T13:16:51.512Z,54.53
2018-09-14T13:18:01.697Z,53.96
2018-09-14T13:19:11.828Z,55.4
2018-09-14T13:20:21.693Z,55.58
2018-09-14T13:21:31.549Z,54.99
2018-09-14T13:22:41.405Z,55.65
2018-09-14T13:23:51.264Z,56.61
2018-09-14T13:25:01.120Z,56.42
2018-09-14T13:26:10.704Z,57.38
2018-09-14T13:27:20.282Z,57.48
2018-09-14T13:28:29.867Z,57.67
2018-09-14T13:29:40.064Z,58.15
2018-09-14T13:30:50.198Z,57.57
2018-09-14T13:32:00.328Z,56.23
2018-09-14T13:33:10.196Z,56.49
2018-09-14T13:34:20.053Z,56.39
2018-09-14T13:35:29.961Z,56.3
2018-09-14T13:36:39.827Z,56.87
2018-09-14T13:37:49.955Z,57.16
2018-09-14T13:38:59.542Z,56.68
2018-09-14T13:40:09.740Z,57.16
2018-09-14T13:41:19.705Z,56.68
2018-09-14T13:42:29.570Z,57.64
2018-09-14T13:43:39.163Z,57.16
2018-09-14T13:44:49.381Z,58.79
2018-09-14T13:45:59.313Z,58.5
2018-09-14T13:47:09.174Z,58.59
2018-09-14T13:48:19.029Z,57.16
2018-09-14T13:49:29.163Z,58.12
2018-09-14T13:50:39.306Z,57.64
2018-09-14T13:51:48.893Z,56.39
2018-09-14T13:52:59.032Z,57.54
2018-09-14T13:54:08.948Z,57.73
2018-09-14T13:55:18.807Z,57.73
2018-09-14T13:56:28.949Z,57.76
2018-09-14T13:57:39.084Z,57.38
2018-09-14T13:58:49.047Z,58.02
2018-09-14T13:59:58.957Z,56.23
2018-09-14T14:01:08.604Z,56.77
2018-09-14T14:02:18.599Z,55.94
2018-09-14T14:03:28.511Z,56.59
2018-09-14T14:04:38.702Z,57.35
2018-09-14T14:05:48.558Z,58.02
2018-09-14T14:06:58.739Z,57.26
2018-09-14T14:08:08.603Z,57.54
2018-09-14T14:09:18.747Z,58.31
2018-09-14T14:10:28.357Z,58.53
2018-09-14T14:11:38.495Z,56.61
2018-09-14T14:12:48.631Z,57.26
2018-09-14T14:13:58.484Z,57.73
2018-09-14T14:15:08.632Z,57.54
2018-09-14T14:16:18.827Z,57.16
2018-09-14T14:17:29.353Z,57.64
2018-09-14T14:18:39.873Z,58.02
2018-09-14T14:19:50.024Z,56.68
2018-09-14T14:21:00.201Z,57.83
2018-09-14T14:22:10.696Z,58.69
2018-09-14T14:23:20.832Z,57.67
2018-09-14T14:24:30.976Z,56.23
2018-09-14T14:25:40.831Z,55.85
2018-09-14T14:26:50.693Z,55.65
2018-09-14T14:28:00.888Z,55.36
2018-09-14T14:29:11.032Z,54.6
2018-09-14T14:30:20.890Z,55.36
2018-09-14T14:31:31.021Z,56.52
2018-09-14T14:32:40.886Z,56.61
2018-09-14T14:33:50.824Z,55.08
2018-09-14T14:35:00.738Z,53.93
2018-09-14T14:36:10.334Z,55.3
2018-09-14T14:37:20.204Z,53.77
2018-09-14T14:38:30.341Z,53.86
2018-09-14T14:39:40.255Z,52.93
2018-09-14T14:40:50.389Z,53.41
2018-09-14T14:42:00.025Z,53.5
2018-09-14T14:43:08.784Z,52.74
2018-09-14T14:44:18.639Z,53.82
2018-09-14T14:45:28.836Z,54.39
2018-09-14T14:46:38.996Z,53.56
2018-09-14T14:47:49.145Z,52.69
2018-09-14T14:48:59.284Z,52.95
2018-09-14T14:50:09.149Z,52.12
2018-09-14T14:51:19.329Z,51.93
2018-09-14T14:52:29.475Z,52.6
2018-09-14T14:53:39.609Z,53.75
2018-09-14T14:54:49.745Z,53.17
2018-09-14T14:56:00.003Z,52.5
2018-09-14T14:57:10.248Z,53.17
2018-09-14T14:58:19.850Z,52.57
2018-09-14T14:59:30.074Z,54.68
2018-09-14T15:00:40.376Z,55.45
2018-09-14T15:01:50.513Z,56.22
2018-09-14T15:03:00.707Z,56.29
2018-09-14T15:04:10.593Z,56.29